createdAt,value
2022-11-22T00:01:10.973Z,1.88
2022-11-22T00:03:16.309Z,1.63
2022-11-22T00:05:21.289Z,1.35
2022-11-22T00:07:26.665Z,1.60
2022-11-22T00:09:34.480Z,1.60
2022-11-22T00:11:39.851Z,1.77
2022-11-22T00:13:45.032Z,2.50
2022-11-22T00:16:01.909Z,1.95
2022-11-22T00:18:06.916Z,1.90
2022-11-22T00:20:14.175Z,2.03
2022-11-22T00:22:19.996Z,1.85
2022-11-22T00:24:25.266Z,1.60
2022-11-22T00:26:32.804Z,1.88
2022-11-22T00:28:37.761Z,1.85
2022-11-22T00:30:43.641Z,2.72
2022-11-22T00:32:48.565Z,1.90
2022-11-22T00:34:53.803Z,2.10
2022-11-22T00:36:59.119Z,2.00
2022-11-22T00:39:04.624Z,1.83
2022-11-22T00:41:10.080Z,1.88
2022-11-22T00:43:17.661Z,2.00
2022-11-22T00:45:23.064Z,1.65
2022-11-22T00:47:27.997Z,2.38
2022-11-22T00:49:33.678Z,2.10
2022-11-22T00:51:38.947Z,1.95
2022-11-22T00:53:44.323Z,2.20
2022-11-22T00:55:49.584Z,2.00
2022-11-22T00:57:54.554Z,1.85
2022-11-22T01:00:02.114Z,2.00
2022-11-22T01:02:07.069Z,1.83
2022-11-22T01:04:11.957Z,1.92
2022-11-22T01:06:17.113Z,2.05
2022-11-22T01:08:23.138Z,2.30
2022-11-22T01:10:28.141Z,1.85
2022-11-22T01:12:34.082Z,2.30
2022-11-22T01:14:39.031Z,1.70
2022-11-22T01:16:47.156Z,2.00
2022-11-22T01:18:52.756Z,1.95
2022-11-22T01:20:58.364Z,2.17
2022-11-22T01:23:03.339Z,2.08
2022-11-22T01:25:10.508Z,1.98
2022-11-22T01:27:15.842Z,2.20
2022-11-22T01:29:20.766Z,1.92
2022-11-22T01:31:26.400Z,2.13
2022-11-22T01:33:34.326Z,2.42
2022-11-22T01:35:39.388Z,1.75
2022-11-22T01:37:45.465Z,1.98
2022-11-22T01:39:50.449Z,1.92
2022-11-22T01:41:56.010Z,1.90
2022-11-22T01:44:01.301Z,2.30
2022-11-22T01:46:10.442Z,2.35
2022-11-22T01:48:40.892Z,1.90
2022-11-22T01:50:49.941Z,1.98
2022-11-22T01:52:55.142Z,1.90
2022-11-22T01:55:06.746Z,2.13
2022-11-22T01:57:17.328Z,3.00
2022-11-22T01:59:29.173Z,2.40
2022-11-22T02:01:35.688Z,2.78
2022-11-22T02:03:47.427Z,2.75
2022-11-22T02:05:54.668Z,2.42
2022-11-22T02:08:05.071Z,2.50
2022-11-22T02:10:12.740Z,2.42
2022-11-22T02:12:19.796Z,2.47
2022-11-22T02:14:29.888Z,2.90
2022-11-22T02:16:37.200Z,3.17
2022-11-22T02:18:45.649Z,2.60
2022-11-22T02:23:05.024Z,2.03
2022-11-22T02:25:18.094Z,2.55
2022-11-22T02:27:26.311Z,2.13
2022-11-22T02:29:33.549Z,2.22
2022-11-22T02:31:44.607Z,2.30
2022-11-22T02:33:50.091Z,2.15
2022-11-22T02:35:55.317Z,1.80
2022-11-22T02:38:04.102Z,2.50
2022-11-22T02:40:16.254Z,2.50
2022-11-22T02:42:21.628Z,2.20
2022-11-22T02:44:30.162Z,2.53
2022-11-22T02:46:35.068Z,2.30
2022-11-22T02:48:45.325Z,2.10
2022-11-22T02:50:51.023Z,2.50
2022-11-22T02:52:55.932Z,3.05
2022-11-22T02:55:01.158Z,2.60
2022-11-22T02:57:06.994Z,2.53
2022-11-22T02:59:12.266Z,2.88
2022-11-22T03:01:20.249Z,2.80
2022-11-22T03:03:25.333Z,2.92
2022-11-22T03:05:31.033Z,2.88
2022-11-22T03:07:36.608Z,3.47
2022-11-22T03:09:41.667Z,3.30
2022-11-22T03:11:47.873Z,3.17
2022-11-22T03:13:52.777Z,3.30
2022-11-22T03:15:58.585Z,3.00
2022-11-22T03:18:07.341Z,3.17
2022-11-22T03:20:13.073Z,3.10
2022-11-22T03:22:19.036Z,3.20
2022-11-22T03:24:24.041Z,3.10
2022-11-22T03:26:29.400Z,3.30
2022-11-22T03:28:34.289Z,3.17
2022-11-22T03:30:43.908Z,3.50
2022-11-22T03:32:49.180Z,3.63
2022-11-22T03:34:56.784Z,3.72
2022-11-22T03:37:02.033Z,3.60
2022-11-22T03:39:07.101Z,3.35
2022-11-22T03:41:12.818Z,3.67
2022-11-22T03:43:17.943Z,3.53
2022-11-22T03:45:22.905Z,3.67
2022-11-22T03:47:28.477Z,4.35
2022-11-22T03:49:33.523Z,3.65
2022-11-22T03:51:41.040Z,3.70
2022-11-22T03:53:46.607Z,4.13
2022-11-22T03:55:51.941Z,4.47
2022-11-22T03:57:56.923Z,3.85
2022-11-22T04:00:02.366Z,3.83
2022-11-22T04:02:17.424Z,3.58
2022-11-22T04:04:22.350Z,4.03
2022-11-22T04:06:27.351Z,4.50
2022-11-22T04:08:35.522Z,4.97
2022-11-22T04:12:46.460Z,4.40
2022-11-22T04:15:03.903Z,4.68
2022-11-22T04:19:14.258Z,4.90
2022-11-22T04:21:32.140Z,3.88
2022-11-22T04:23:39.627Z,4.60
2022-11-22T04:25:46.063Z,4.25
2022-11-22T04:27:51.450Z,4.47
2022-11-22T04:29:56.405Z,4.43
2022-11-22T04:32:14.977Z,4.80
2022-11-22T04:34:19.895Z,4.30
2022-11-22T04:36:24.846Z,4.50
2022-11-22T04:38:30.711Z,3.88
2022-11-22T04:40:38.830Z,5.18
2022-11-22T04:42:56.215Z,4.90
2022-11-22T04:47:06.537Z,4.57
2022-11-22T04:49:11.429Z,5.00
2022-11-22T04:51:30.911Z,5.07
2022-11-22T04:53:35.865Z,4.97
2022-11-22T04:55:44.214Z,4.85
2022-11-22T04:57:52.064Z,4.53
2022-11-22T05:00:00.969Z,4.43
2022-11-22T05:02:06.927Z,4.50
2022-11-22T05:04:11.867Z,4.72
2022-11-22T05:06:17.269Z,4.70
2022-11-22T05:08:23.063Z,4.57
2022-11-22T05:10:28.507Z,4.25
2022-11-22T05:12:36.069Z,4.97
2022-11-22T05:14:41.403Z,4.75
2022-11-22T05:16:46.848Z,4.85
2022-11-22T05:18:59.332Z,4.47
2022-11-22T05:21:08.824Z,5.18
2022-11-22T05:23:27.107Z,4.90
2022-11-22T05:25:32.357Z,5.25
2022-11-22T05:27:40.916Z,4.85
2022-11-22T05:29:45.832Z,4.68
2022-11-22T05:31:51.582Z,5.13
2022-11-22T05:33:59.652Z,4.78
2022-11-22T05:36:05.078Z,5.68
2022-11-22T05:38:10.844Z,4.90
2022-11-22T05:40:16.441Z,5.55
2022-11-22T05:42:22.159Z,5.70
2022-11-22T05:44:29.893Z,5.40
2022-11-22T05:46:34.869Z,5.95
2022-11-22T05:48:42.151Z,5.60
2022-11-22T05:50:47.536Z,5.47
2022-11-22T05:52:52.504Z,6.47
2022-11-22T05:54:57.847Z,6.25
2022-11-22T05:57:02.790Z,5.82
2022-11-22T05:59:08.454Z,6.28
2022-11-22T06:01:19.414Z,6.68
2022-11-22T06:03:24.625Z,6.22
2022-11-22T06:05:31.700Z,5.78
2022-11-22T06:07:36.713Z,5.95
2022-11-22T06:09:42.489Z,5.50
2022-11-22T06:11:47.959Z,5.65
2022-11-22T06:13:55.597Z,5.88
2022-11-22T06:16:03.527Z,7.60
2022-11-22T06:20:16.271Z,5.70
2022-11-22T06:22:21.766Z,6.53
2022-11-22T06:24:26.672Z,6.40
2022-11-22T06:26:37.663Z,6.43
2022-11-22T06:28:44.943Z,8.60
2022-11-22T06:30:50.525Z,6.53
2022-11-22T06:32:55.455Z,6.55
2022-11-22T06:35:04.007Z,9.45
2022-11-22T06:37:10.062Z,14.27
2022-11-22T06:39:15.525Z,7.55
2022-11-22T06:41:23.302Z,7.47
2022-11-22T06:43:31.400Z,8.95
2022-11-22T06:45:36.967Z,9.18
2022-11-22T06:47:41.909Z,8.15
2022-11-22T06:49:47.585Z,8.55
2022-11-22T06:51:55.548Z,7.50
2022-11-22T06:54:01.544Z,7.07
2022-11-22T06:56:11.006Z,7.15
2022-11-22T06:58:15.967Z,7.53
2022-11-22T07:00:22.142Z,8.60
2022-11-22T07:02:27.408Z,7.00
2022-11-22T07:04:32.620Z,7.68
2022-11-22T07:06:40.215Z,7.15
2022-11-22T07:08:49.332Z,7.53
2022-11-22T07:10:54.621Z,7.13
2022-11-22T07:12:59.592Z,7.53
2022-11-22T07:15:04.533Z,8.00
2022-11-22T07:17:09.478Z,7.15
2022-11-22T07:19:15.063Z,7.78
2022-11-22T07:21:22.630Z,8.10
2022-11-22T07:23:27.596Z,8.00
2022-11-22T07:25:35.116Z,8.05
2022-11-22T07:27:40.041Z,7.63
2022-11-22T07:29:44.988Z,8.80
2022-11-22T07:31:50.267Z,9.27
2022-11-22T07:33:55.576Z,7.75
2022-11-22T07:36:08.645Z,8.48
2022-11-22T07:38:13.692Z,7.85
2022-11-22T07:40:19.809Z,8.38
2022-11-22T07:42:27.347Z,8.10
2022-11-22T07:44:32.717Z,8.25
2022-11-22T07:46:37.700Z,7.35
2022-11-22T07:48:43.287Z,7.18
2022-11-22T07:50:48.284Z,7.03
2022-11-22T07:52:59.067Z,7.53
2022-11-22T07:55:04.140Z,8.07
2022-11-22T07:57:09.089Z,9.13
2022-11-22T07:59:16.771Z,8.88
2022-11-22T08:01:23.670Z,7.03
2022-11-22T08:03:29.498Z,5.05
2022-11-22T08:05:34.457Z,5.53
2022-11-22T08:07:39.599Z,5.35
2022-11-22T08:09:44.630Z,4.80
2022-11-22T08:11:49.701Z,5.07
2022-11-22T08:13:55.011Z,4.25
2022-11-22T08:16:10.143Z,5.38
2022-11-22T08:18:15.194Z,5.32
2022-11-22T08:20:20.570Z,5.15
2022-11-22T08:22:25.808Z,4.68
2022-11-22T08:24:30.930Z,5.03
2022-11-22T08:26:37.835Z,4.88
2022-11-22T08:28:43.821Z,5.55
2022-11-22T08:30:48.700Z,5.03
2022-11-22T08:32:57.534Z,4.88
2022-11-22T08:35:03.356Z,5.20
2022-11-22T08:37:08.266Z,5.50
2022-11-22T08:39:13.388Z,5.25
2022-11-22T08:41:18.488Z,5.55
2022-11-22T08:43:23.439Z,5.18
2022-11-22T08:45:29.611Z,5.35
2022-11-22T08:47:34.533Z,4.95
2022-11-22T08:49:42.235Z,5.93
2022-11-22T08:51:47.524Z,5.47
2022-11-22T08:53:52.571Z,6.05
2022-11-22T08:55:58.501Z,4.88
2022-11-22T08:58:03.857Z,4.82
2022-11-22T09:00:11.564Z,4.60
2022-11-22T09:02:18.777Z,4.57
2022-11-22T09:04:23.892Z,3.80
2022-11-22T09:09:15.582Z,3.95
2022-11-22T09:11:23.317Z,3.22
2022-11-22T09:13:28.550Z,3.88
2022-11-22T09:15:34.237Z,3.58
2022-11-22T09:17:39.162Z,3.42
2022-11-22T09:19:44.627Z,2.92
2022-11-22T09:21:52.165Z,2.63
2022-11-22T09:26:06.134Z,2.70
2022-11-22T09:28:11.413Z,3.20
2022-11-22T09:30:17.793Z,3.10
2022-11-22T09:32:23.157Z,3.08
2022-11-22T09:34:28.542Z,3.38
2022-11-22T09:36:33.565Z,3.08
2022-11-22T09:38:41.913Z,2.88
2022-11-22T09:40:49.614Z,3.38
2022-11-22T09:43:14.892Z,3.78
2022-11-22T09:45:48.281Z,3.53
2022-11-22T09:48:09.891Z,4.07
2022-11-22T09:50:29.618Z,2.40
2022-11-22T09:52:41.996Z,2.78
2022-11-22T09:54:55.666Z,2.75
2022-11-22T09:57:06.159Z,2.88
2022-11-22T09:59:18.741Z,3.05
2022-11-22T10:01:29.662Z,3.30
2022-11-22T10:03:48.759Z,2.78
2022-11-22T10:05:57.343Z,2.85
2022-11-22T10:08:26.523Z,2.97
2022-11-22T10:10:42.571Z,2.80
2022-11-22T10:13:01.754Z,3.08
2022-11-22T10:15:17.172Z,3.55
2022-11-22T10:17:38.928Z,3.40
2022-11-22T10:19:56.679Z,2.40
2022-11-22T10:22:01.781Z,3.47
2022-11-22T10:24:08.488Z,3.50
2022-11-22T10:26:28.942Z,4.03
2022-11-22T10:28:39.199Z,2.83
2022-11-22T10:30:52.918Z,2.42
2022-11-22T10:33:05.636Z,2.25
2022-11-22T10:35:34.462Z,2.53
2022-11-22T10:37:48.200Z,2.72
2022-11-22T10:40:12.026Z,2.47
2022-11-22T10:42:34.488Z,3.15
2022-11-22T10:44:53.665Z,2.47
2022-11-22T10:47:09.010Z,2.85
2022-11-22T10:49:25.382Z,2.17
2022-11-22T10:51:38.152Z,2.60
2022-11-22T10:54:01.901Z,2.50
2022-11-22T10:56:16.796Z,2.45
2022-11-22T10:58:37.472Z,1.90
2022-11-22T11:00:47.196Z,2.15
2022-11-22T11:03:12.897Z,1.55
2022-11-22T11:05:37.368Z,1.88
2022-11-22T11:07:50.370Z,2.30
2022-11-22T11:10:11.258Z,2.20
2022-11-22T11:12:22.506Z,1.85
2022-11-22T11:14:36.723Z,2.53
2022-11-22T11:16:42.529Z,1.90
2022-11-22T11:18:55.039Z,2.03
2022-11-22T11:21:00.112Z,2.30
2022-11-22T11:23:20.486Z,1.58
2022-11-22T11:25:33.957Z,1.60
2022-11-22T11:27:41.233Z,1.88
2022-11-22T11:29:51.380Z,1.58
2022-11-22T11:32:14.834Z,1.75
2022-11-22T11:34:26.793Z,2.25
2022-11-22T11:36:32.232Z,1.40
2022-11-22T11:41:43.151Z,1.40
2022-11-22T11:43:49.344Z,1.73
2022-11-22T11:45:56.909Z,1.45
2022-11-22T11:48:01.866Z,1.67
2022-11-22T11:50:23.775Z,1.55
2022-11-22T11:52:31.636Z,1.58
2022-11-22T11:54:45.390Z,1.73
2022-11-22T11:56:53.943Z,1.98
2022-11-22T11:59:01.801Z,2.20
2022-11-22T12:01:17.848Z,1.70
2022-11-22T12:03:25.553Z,1.88
2022-11-22T12:05:33.773Z,1.73
2022-11-22T12:07:44.955Z,1.48
2022-11-22T12:09:52.636Z,2.13
2022-11-22T12:12:01.386Z,1.60
2022-11-22T12:14:20.061Z,1.83
2022-11-22T12:16:41.987Z,1.50
2022-11-22T12:18:56.283Z,1.35
2022-11-22T12:21:14.507Z,2.22
2022-11-22T12:23:27.232Z,1.48
2022-11-22T12:25:38.338Z,2.20
2022-11-22T12:27:43.454Z,1.88
2022-11-22T12:29:48.967Z,1.75
2022-11-22T12:32:04.193Z,1.77
2022-11-22T12:34:16.977Z,1.73
2022-11-22T12:36:32.763Z,1.80
2022-11-22T12:38:43.655Z,2.03
2022-11-22T12:40:52.513Z,1.88
2022-11-22T12:43:02.528Z,1.80
2022-11-22T12:45:14.627Z,1.60
2022-11-22T12:47:27.120Z,1.85
2022-11-22T12:49:38.820Z,1.70
2022-11-22T12:51:49.705Z,2.20
2022-11-22T12:53:56.800Z,1.75
2022-11-22T12:56:08.684Z,2.10
2022-11-22T12:58:27.266Z,1.63
2022-11-22T13:00:42.466Z,1.92
2022-11-22T13:03:04.110Z,1.80
2022-11-22T13:05:16.790Z,1.65
2022-11-22T13:07:33.141Z,1.50
2022-11-22T13:09:44.623Z,1.40
2022-11-22T13:11:58.116Z,1.80
2022-11-22T13:14:09.467Z,2.17
2022-11-22T13:16:15.840Z,1.83
2022-11-22T13:18:28.216Z,1.90
2022-11-22T13:20:43.057Z,1.80
2022-11-22T13:23:04.809Z,1.58
2022-11-22T13:25:47.067Z,2.17
2022-11-22T13:27:54.894Z,1.70
2022-11-22T13:30:04.170Z,1.80
2022-11-22T13:32:20.547Z,1.50
2022-11-22T13:34:29.495Z,1.70
2022-11-22T13:36:43.604Z,1.92
2022-11-22T13:38:49.768Z,1.80
2022-11-22T13:40:54.812Z,1.95
2022-11-22T13:43:52.264Z,1.85
2022-11-22T13:45:59.437Z,1.85
2022-11-22T13:48:04.389Z,2.00
2022-11-22T13:50:54.559Z,1.80
2022-11-22T13:53:24.069Z,1.95
2022-11-22T13:55:41.727Z,1.52
2022-11-22T13:57:47.595Z,1.85
2022-11-22T14:00:42.897Z,1.70
2022-11-22T14:02:51.072Z,1.65
2022-11-22T14:04:57.589Z,1.75
2022-11-22T14:07:07.958Z,1.80
2022-11-22T14:09:42.904Z,1.88
2022-11-22T14:12:03.160Z,2.03
2022-11-22T14:14:19.322Z,1.80
2022-11-22T14:17:07.429Z,1.80
2022-11-22T14:19:30.375Z,1.50
2022-11-22T14:22:09.957Z,2.03
2022-11-22T14:24:28.387Z,2.25
2022-11-22T14:26:47.549Z,1.80
2022-11-22T14:29:30.273Z,1.65
2022-11-22T14:31:38.629Z,1.70
2022-11-22T14:34:21.143Z,2.75
2022-11-22T14:36:26.132Z,2.00
2022-11-22T14:38:35.499Z,1.98
2022-11-22T14:40:42.645Z,1.50
2022-11-22T14:43:18.347Z,1.83
2022-11-22T14:45:31.129Z,2.28
2022-11-22T14:47:38.317Z,1.65
2022-11-22T14:49:48.180Z,1.70
2022-11-22T14:51:56.611Z,2.22
2022-11-22T14:54:04.492Z,1.88
2022-11-22T14:56:19.774Z,2.42
2022-11-22T14:58:32.433Z,1.92
2022-11-22T15:00:57.695Z,2.00
2022-11-22T15:03:44.671Z,2.17
2022-11-22T15:09:10.958Z,1.98
2022-11-22T15:11:52.242Z,1.95
2022-11-22T15:14:36.391Z,1.90
2022-11-22T15:59:20.296Z,1.63
2022-11-22T16:01:25.977Z,2.10
2022-11-22T16:03:45.353Z,2.17
2022-11-22T16:06:08.156Z,2.30
2022-11-22T16:08:17.399Z,2.53
2022-11-22T16:10:25.873Z,2.58
2022-11-22T16:12:32.981Z,2.08
2022-11-22T16:14:51.409Z,1.70
2022-11-22T16:16:56.483Z,2.08
2022-11-22T16:19:23.728Z,1.95
2022-11-22T16:21:31.670Z,2.20
2022-11-22T16:23:38.256Z,1.90
2022-11-22T16:25:45.780Z,2.58
2022-11-22T16:27:51.957Z,1.95
2022-11-22T16:29:56.923Z,2.03
2022-11-22T16:32:09.149Z,2.05
2022-11-22T16:34:20.694Z,2.88
2022-11-22T16:36:32.817Z,4.00
2022-11-22T16:38:37.720Z,6.68
2022-11-22T16:40:46.306Z,4.30
2022-11-22T16:42:51.381Z,2.70
2022-11-22T16:45:02.410Z,2.70
2022-11-22T16:47:13.331Z,3.33
2022-11-22T16:49:21.742Z,2.80
2022-11-22T16:51:31.390Z,4.22
2022-11-22T16:53:43.920Z,3.30
2022-11-22T16:55:50.144Z,2.38
2022-11-22T16:57:55.199Z,2.25
2022-11-22T17:02:13.961Z,3.60
2022-11-22T17:04:27.243Z,3.92
2022-11-22T17:06:35.248Z,2.70
2022-11-22T17:08:40.552Z,2.63
2022-11-22T17:10:49.293Z,2.50
2022-11-22T17:12:54.687Z,3.05
2022-11-22T17:14:59.630Z,2.40
2022-11-22T17:17:05.314Z,2.70
2022-11-22T17:19:30.352Z,1.80
2022-11-22T17:21:38.275Z,2.42
2022-11-22T17:25:47.991Z,2.28
2022-11-22T17:27:54.293Z,2.42
2022-11-22T17:29:59.310Z,2.88
2022-11-22T17:32:04.617Z,2.20
2022-11-22T17:34:09.582Z,2.83
2022-11-22T17:36:24.826Z,2.25
2022-11-22T17:38:32.337Z,2.10
2022-11-22T17:40:37.350Z,2.13
2022-11-22T17:42:42.375Z,2.22
2022-11-22T17:44:47.325Z,2.13
2022-11-22T17:46:52.866Z,2.33
2022-11-22T17:49:00.042Z,2.30
2022-11-22T17:51:09.507Z,1.77
2022-11-22T17:53:14.660Z,1.90
2022-11-22T17:55:22.341Z,1.38
2022-11-22T17:57:27.547Z,1.30
2022-11-22T17:59:32.718Z,1.00
2022-11-22T18:01:37.972Z,1.40
2022-11-22T18:03:44.620Z,1.40
2022-11-22T18:05:49.933Z,1.60
2022-11-22T18:07:56.238Z,2.58
2022-11-22T18:10:01.341Z,2.72
2022-11-22T18:12:09.417Z,2.17
2022-11-22T18:14:15.311Z,3.53
2022-11-22T18:16:21.039Z,1.80
2022-11-22T18:18:55.280Z,2.00
2022-11-22T18:20:51.864Z,1.75
2022-11-22T18:22:56.731Z,1.80
2022-11-22T18:25:05.367Z,1.40
2022-11-22T18:27:13.112Z,1.63
2022-11-22T18:31:51.869Z,2.10
2022-11-22T18:33:58.713Z,2.05
2022-11-22T18:36:04.974Z,1.48
2022-11-22T18:38:10.688Z,1.77
2022-11-22T18:40:17.661Z,1.45
2022-11-22T18:42:25.199Z,1.50
2022-11-22T18:44:30.287Z,1.27
2022-11-22T18:46:35.363Z,1.58
2022-11-22T18:48:41.021Z,1.52
2022-11-22T18:50:45.987Z,1.42
2022-11-22T18:52:51.501Z,1.55
2022-11-22T18:54:56.824Z,1.80
2022-11-22T18:57:02.125Z,1.70
2022-11-22T18:59:12.772Z,2.10
2022-11-22T19:01:20.422Z,2.38
2022-11-22T19:03:25.382Z,1.70
2022-11-22T19:05:30.595Z,1.90
2022-11-22T19:07:36.012Z,1.50
2022-11-22T19:09:41.115Z,1.48
2022-11-22T19:11:46.087Z,1.92
2022-11-22T19:13:51.203Z,1.50
2022-11-22T19:15:58.881Z,1.60
2022-11-22T19:18:03.834Z,1.67
2022-11-22T19:20:32.120Z,1.85
2022-11-22T19:22:37.632Z,1.38
2022-11-22T19:24:47.174Z,1.52
2022-11-22T19:26:52.630Z,2.45
2022-11-22T19:28:58.483Z,1.27
2022-11-22T19:31:09.157Z,1.20
2022-11-22T19:33:16.765Z,1.50
2022-11-22T19:35:21.744Z,1.58
2022-11-22T19:37:27.360Z,1.50
2022-11-22T19:39:33.349Z,1.17
2022-11-22T19:41:38.664Z,1.15
2022-11-22T19:43:43.642Z,1.38
2022-11-22T19:45:48.936Z,1.50
2022-11-22T19:47:56.725Z,1.73
2022-11-22T19:50:01.686Z,2.55
2022-11-22T19:52:07.072Z,3.38
2022-11-22T19:54:12.365Z,3.40
2022-11-22T19:56:19.592Z,3.22
2022-11-22T19:58:24.868Z,2.50
2022-11-22T20:00:29.898Z,2.58
2022-11-22T20:02:35.130Z,2.35
2022-11-22T20:04:42.675Z,2.10
2022-11-22T20:08:55.606Z,1.55
2022-11-22T20:11:05.897Z,1.60
2022-11-22T20:13:10.918Z,1.58
2022-11-22T20:15:15.885Z,1.45
2022-11-22T20:17:22.579Z,2.00
2022-11-22T20:19:32.699Z,1.60
2022-11-22T20:21:43.161Z,1.45
2022-11-22T20:23:48.113Z,1.60
2022-11-22T20:25:53.212Z,1.85
2022-11-22T20:27:59.045Z,1.25
2022-11-22T20:30:04.448Z,1.45
2022-11-22T20:32:09.476Z,1.48
2022-11-22T20:34:15.807Z,1.83
2022-11-22T20:36:23.060Z,1.70
2022-11-22T20:38:31.182Z,2.17
2022-11-22T20:42:41.411Z,1.70
2022-11-22T20:44:46.344Z,1.88
2022-11-22T20:46:52.412Z,1.30
2022-11-22T20:48:59.904Z,1.70
2022-11-22T20:51:08.458Z,1.80
2022-11-22T20:53:13.393Z,1.30
2022-11-22T20:55:21.978Z,1.48
2022-11-22T20:57:27.946Z,1.77
2022-11-22T20:59:33.011Z,1.98
2022-11-22T21:01:39.188Z,2.10
2022-11-22T21:03:45.034Z,2.33
2022-11-22T21:05:53.826Z,2.50
2022-11-22T21:08:02.457Z,2.50
2022-11-22T21:10:11.344Z,2.38
2022-11-22T21:12:19.233Z,2.50
2022-11-22T21:16:31.938Z,1.83
2022-11-22T21:18:37.301Z,2.17
2022-11-22T21:20:43.902Z,1.90
2022-11-22T21:22:48.872Z,1.85
2022-11-22T21:24:53.924Z,2.25
2022-11-22T21:26:59.147Z,1.90
2022-11-22T21:29:15.885Z,2.38
2022-11-22T21:31:22.407Z,1.45
2022-11-22T21:33:28.230Z,1.77
2022-11-22T21:35:33.143Z,1.65
2022-11-22T21:37:38.103Z,1.90
2022-11-22T21:39:44.129Z,2.20
2022-11-22T21:41:49.101Z,1.80
2022-11-22T21:43:57.980Z,1.75
2022-11-22T21:46:06.381Z,1.63
2022-11-22T21:48:11.376Z,1.45
2022-11-22T21:50:16.934Z,1.65
2022-11-22T21:52:21.921Z,1.55
2022-11-22T21:54:27.394Z,1.65
2022-11-22T21:56:33.209Z,1.50
2022-11-22T21:58:38.166Z,1.50
2022-11-22T22:00:43.348Z,1.60
2022-11-22T22:02:50.885Z,1.60
2022-11-22T22:04:55.868Z,1.85
2022-11-22T22:07:01.264Z,1.80
2022-11-22T22:09:06.526Z,1.70
2022-11-22T22:11:12.492Z,1.70
2022-11-22T22:13:19.035Z,1.73
2022-11-22T22:15:24.267Z,1.52
2022-11-22T22:17:29.239Z,1.50
2022-11-22T22:19:39.556Z,1.85
2022-11-22T22:21:44.496Z,1.50
2022-11-22T22:23:50.101Z,1.85
2022-11-22T22:26:00.072Z,1.70
2022-11-22T22:28:05.005Z,1.80
2022-11-22T22:30:12.119Z,1.60
2022-11-22T22:32:17.073Z,1.85
2022-11-22T22:34:22.001Z,1.80
2022-11-22T22:36:30.340Z,1.85
2022-11-22T22:38:36.970Z,1.50
2022-11-22T22:40:42.374Z,1.90
2022-11-22T22:42:47.344Z,1.65
2022-11-22T22:44:53.136Z,1.45
2022-11-22T22:46:58.140Z,1.60
2022-11-22T22:49:03.190Z,1.80
2022-11-22T22:51:11.153Z,1.70
2022-11-22T22:53:18.659Z,1.60
2022-11-22T22:55:23.737Z,2.10
2022-11-22T22:57:28.971Z,1.70
2022-11-22T22:59:34.149Z,2.47
2022-11-22T23:01:39.532Z,1.50
2022-11-22T23:03:44.947Z,1.83
2022-11-22T23:05:49.974Z,1.85
2022-11-22T23:07:55.194Z,1.90
2022-11-22T23:10:02.971Z,2.28
2022-11-22T23:12:14.673Z,2.20
2022-11-22T23:14:23.365Z,2.30
2022-11-22T23:16:28.313Z,1.90
2022-11-22T23:18:33.324Z,2.30
2022-11-22T23:20:38.518Z,1.60
2022-11-22T23:22:43.478Z,2.00
2022-11-22T23:24:48.544Z,2.33
2022-11-22T23:26:56.149Z,2.30
2022-11-22T23:29:01.547Z,1.70
2022-11-22T23:31:11.825Z,1.67
2022-11-22T23:33:16.892Z,2.00
2022-11-22T23:35:21.898Z,2.05
2022-11-22T23:37:27.080Z,1.77
2022-11-22T23:39:32.309Z,2.00
2022-11-22T23:41:37.547Z,1.65
2022-11-22T23:43:46.368Z,2.00
2022-11-22T23:45:51.344Z,1.58
2022-11-22T23:47:56.387Z,1.70
2022-11-22T23:50:01.466Z,1.80
2022-11-22T23:52:06.871Z,2.00
2022-11-22T23:54:13.396Z,1.92
2022-11-22T23:56:22.110Z,1.67
2022-11-22T23:58:27.198Z,1.70
